Wetterverlauf

Letzte Wetterlage 24.04.2014 13:02
Wetterdiagramm
Tabellarische Darstellung
Datum Temperatur Windchill Feuchte Luftdruck Windrichtung Windstärke Niederschlag
24.04.2014 13:02 20 °C 20 °C 61 % 1018,2 hPa 0 1.3 0,00 mm
24.04.2014 12:42 19 °C 19 °C 67 % 1018,3 hPa 276 0.4 0,00 mm
24.04.2014 12:22 18 °C 18 °C 68 % 1018,4 hPa 334 0.9 0,00 mm
24.04.2014 12:02 18 °C 18 °C 68 % 1018,7 hPa 262 0.4 0,00 mm
24.04.2014 11:42 19 °C 19 °C 66 % 1018,9 hPa 285 0.0 0,00 mm
24.04.2014 11:22 19 °C 18 °C 64 % 1019,0 hPa 340 2.7 0,00 mm
24.04.2014 11:02 20 °C 20 °C 72 % 1018,8 hPa 75 0.9 0,00 mm
24.04.2014 10:42 20 °C 20 °C 61 % 1018,9 hPa 218 0.0 0,00 mm
24.04.2014 10:22 19 °C 19 °C 65 % 1018,9 hPa 216 0.0 0,00 mm
24.04.2014 10:02 18 °C 18 °C 77 % 1018,9 hPa 170 0.4 0,00 mm
24.04.2014 09:42 16 °C 16 °C 81 % 1018,9 hPa 171 0.0 0,00 mm
24.04.2014 09:22 15 °C 15 °C 83 % 1018,8 hPa 171 0.4 0,00 mm
24.04.2014 09:02 14 °C 14 °C 88 % 1019,0 hPa 173 0.0 0,00 mm
24.04.2014 08:42 12 °C 12 °C 94 % 1018,9 hPa 176 0.0 0,00 mm
24.04.2014 08:22 11 °C 11 °C 96 % 1018,9 hPa 176 0.0 0,00 mm
24.04.2014 08:02 10 °C 10 °C 96 % 1018,7 hPa 178 0.0 0,00 mm
24.04.2014 07:42 10 °C 10 °C 97 % 1018,4 hPa 225 0.9 0,00 mm
24.04.2014 07:22 9 °C 9 °C 96 % 1018,5 hPa 150 0.0 0,00 mm
24.04.2014 07:02 9 °C 9 °C 95 % 1018,4 hPa 150 0.0 0,00 mm
24.04.2014 06:42 9 °C 9 °C 95 % 1018,4 hPa 150 0.0 0,00 mm
24.04.2014 06:22 9 °C 9 °C 96 % 1018,3 hPa 150 0.0 0,00 mm
24.04.2014 06:02 9 °C 9 °C 96 % 1018,1 hPa 150 0.0 0,00 mm
24.04.2014 05:42 9 °C 9 °C 95 % 1018,1 hPa 150 0.0 0,00 mm
24.04.2014 05:22 9 °C 9 °C 94 % 1018,2 hPa 150 0.0 0,00 mm
24.04.2014 05:02 9 °C 9 °C 94 % 1018,2 hPa 150 0.0 0,00 mm
1
Empfehlen Sie wetter.com
| Mehr
Neue Wetterwarnung

Neue Niederschlagsmeldung
Neue Meldung
Regen Liveticker
    sehr starker Regen/Gewitter
    starker Regen/Gewitter
    mäßiger bis starker Regen
    mäßiger Regen
    leichter bis mäßiger Regen
    kein Regen